Time;durP1;ratioP1;P1;durP2;ratioP2;P2;SDS_P1;SDS_P2;PMS_P1;PMS_P2;Temp;Humidity;BMP_temperature;BMP_pressure;BME280_temperature;BME280_humidity;BME280_pressure;Samples;Min_cycle;Max_cycle;Signal;HPM_P1;HPM_P2
2022/10/16 00:01:44;;;;;;;11.15;6.85;;;;;;;16.89;61.29;100366.37;4488298;31;33308;-75
2022/10/16 00:04:12;;;;;;;13.30;7.10;;;;;;;16.80;61.49;100376.53;4500260;31;33947;-77
2022/10/16 00:06:40;;;;;;;12.30;6.65;;;;;;;16.84;61.28;100373.19;4481634;31;33890;-76
2022/10/16 00:09:07;;;;;;;10.73;6.60;;;;;;;16.66;61.86;100363.94;4489950;31;33934;-75
2022/10/16 00:11:37;;;;;;;14.00;6.95;;;;;;;16.77;61.21;100368.63;4496665;31;33574;-75
2022/10/16 00:14:08;;;;;;;14.15;7.30;;;;;;;16.76;61.38;100364.22;4496900;31;33741;-78
2022/10/16 00:16:36;;;;;;;15.10;6.95;;;;;;;16.49;62.14;100362.56;4491613;31;34807;-75
2022/10/16 00:19:04;;;;;;;11.88;6.75;;;;;;;16.58;61.77;100357.59;4491618;31;34501;-75
2022/10/16 00:21:32;;;;;;;11.32;7.05;;;;;;;16.53;61.99;100361.81;4474824;31;33359;-76
2022/10/16 00:24:18;;;;;;;11.07;6.82;;;;;;;16.15;62.85;100369.37;4489324;31;35567;-75
2022/10/16 00:26:49;;;;;;;11.48;6.45;;;;;;;16.55;61.62;100370.56;4473650;31;34646;-75
2022/10/16 00:29:16;;;;;;;11.88;6.07;;;;;;;16.51;61.69;100374.84;4476555;31;33611;-75
2022/10/16 00:31:44;;;;;;;13.07;6.53;;;;;;;16.41;61.84;100369.28;4487819;31;33248;-76
2022/10/16 00:34:11;;;;;;;12.77;6.75;;;;;;;16.18;62.28;100374.69;4490924;31;34089;-77
2022/10/16 00:36:39;;;;;;;11.85;7.00;;;;;;;16.19;62.17;100381.72;4492203;31;33823;-78
2022/10/16 00:39:06;;;;;;;13.23;6.25;;;;;;;16.38;61.59;100377.03;4489767;31;33822;-77
2022/10/16 00:41:34;;;;;;;11.82;6.45;;;;;;;16.48;61.27;100390.44;4474908;31;34242;-77
2022/10/16 00:44:23;;;;;;;10.50;6.20;;;;;;;16.23;61.67;100383.56;4493362;31;34572;-74
2022/10/16 00:46:51;;;;;;;11.30;6.18;;;;;;;16.20;61.79;100386.06;4487770;31;34656;-78
2022/10/16 00:49:20;;;;;;;10.13;6.12;;;;;;;16.41;60.81;100382.38;4489488;31;33828;-77
2022/10/16 00:51:52;;;;;;;11.63;6.00;;;;;;;16.31;61.25;100386.44;4474017;31;34487;-75
2022/10/16 00:54:26;;;;;;;11.98;6.12;;;;;;;16.58;60.42;100394.22;4479090;32;34169;-77
2022/10/16 00:56:54;;;;;;;13.68;6.75;;;;;;;16.22;61.35;100392.25;4487908;31;33901;-76
2022/10/16 00:59:24;;;;;;;10.48;6.22;;;;;;;16.15;61.73;100400.75;4489339;31;34344;-75
2022/10/16 01:01:52;;;;;;;12.85;6.40;;;;;;;16.17;61.64;100404.31;4461323;31;34113;-75
2022/10/16 01:04:21;;;;;;;10.90;6.40;;;;;;;16.25;61.31;100394.97;4489807;31;34048;-75
2022/10/16 01:06:55;;;;;;;13.98;6.68;;;;;;;16.33;60.89;100407.41;4483567;31;33691;-75
2022/10/16 01:09:53;;;;;;;11.40;6.37;;;;;;;16.36;60.87;100404.84;4497945;31;34628;-75
2022/10/16 01:12:34;;;;;;;11.95;5.90;;;;;;;16.40;60.72;100409.34;4474823;31;34004;-77
2022/10/16 01:15:18;;;;;;;10.23;6.10;;;;;;;16.34;60.76;100409.16;4483184;32;34026;-75
2022/10/16 01:17:49;;;;;;;9.60;5.93;;;;;;;16.19;60.91;100413.06;4472780;31;34636;-75
2022/10/16 01:20:26;;;;;;;11.25;6.20;;;;;;;16.06;61.23;100413.50;4490140;31;33624;-77
2022/10/16 01:23:03;;;;;;;10.88;6.65;;;;;;;16.12;61.04;100416.31;4474909;32;32923;-76
2022/10/16 01:25:44;;;;;;;12.35;5.78;;;;;;;16.05;61.29;100414.34;4468680;31;33654;-77
2022/10/16 01:28:13;;;;;;;10.98;6.43;;;;;;;15.98;61.59;100421.09;4472484;31;34468;-75
2022/10/16 01:30:42;;;;;;;11.98;6.90;;;;;;;15.87;61.49;100420.72;4475253;31;33647;-76
2022/10/16 01:33:15;;;;;;;11.30;6.35;;;;;;;15.65;62.35;100413.87;4478962;32;33579;-77
2022/10/16 01:35:46;;;;;;;10.23;6.05;;;;;;;15.81;61.85;100419.66;4492796;31;33648;-76
2022/10/16 01:38:40;;;;;;;12.52;6.20;;;;;;;16.03;61.01;100416.00;4477817;31;33528;-78
2022/10/16 01:41:14;;;;;;;9.67;6.33;;;;;;;15.95;61.50;100417.50;4483934;31;33357;-77
2022/10/16 01:43:48;;;;;;;12.68;6.50;;;;;;;16.19;60.39;100423.53;4476049;31;33231;-75
2022/10/16 01:46:18;;;;;;;9.63;6.20;;;;;;;15.91;61.67;100417.38;4495806;31;34041;-77
2022/10/16 01:48:48;;;;;;;10.48;6.45;;;;;;;15.84;61.54;100420.66;4478045;32;33684;-75
2022/10/16 01:51:17;;;;;;;11.85;6.80;;;;;;;15.81;61.34;100430.09;4494899;31;34296;-76
2022/10/16 01:53:48;;;;;;;9.20;5.62;;;;;;;15.83;61.08;100418.88;4496852;31;33341;-76
2022/10/16 01:56:17;;;;;;;13.80;7.12;;;;;;;15.58;62.19;100422.34;4467809;32;33475;-77
2022/10/16 01:58:49;;;;;;;10.95;6.45;;;;;;;15.49;62.13;100425.53;4473414;32;33541;-75
2022/10/16 02:01:19;;;;;;;11.57;6.30;;;;;;;15.47;62.21;100427.22;4482318;31;33470;-76
2022/10/16 02:03:51;;;;;;;10.30;6.28;;;;;;;15.24;62.92;100441.13;4496060;31;33303;-76
2022/10/16 02:06:19;;;;;;;10.85;6.47;;;;;;;15.60;62.10;100438.06;4480712;32;33667;-75
2022/10/16 02:08:47;;;;;;;12.40;6.60;;;;;;;15.40;62.80;100445.22;4478091;32;33875;-75
2022/10/16 02:11:14;;;;;;;10.80;6.18;;;;;;;15.41;62.59;100445.22;4497301;31;33657;-76
2022/10/16 02:13:46;;;;;;;12.52;6.78;;;;;;;14.73;64.60;100442.75;4499432;31;33199;-77
2022/10/16 02:16:14;;;;;;;9.45;6.20;;;;;;;14.99;64.08;100447.19;4481244;32;33805;-77
2022/10/16 02:18:42;;;;;;;13.00;7.00;;;;;;;14.99;63.26;100448.09;4479287;32;33690;-75
2022/10/16 02:21:24;;;;;;;11.80;6.25;;;;;;;15.00;63.22;100446.34;4474247;32;33340;-77
2022/10/16 02:24:05;;;;;;;11.27;6.53;;;;;;;15.14;62.60;100450.34;4494529;31;34028;-76
2022/10/16 02:26:44;;;;;;;10.38;5.90;;;;;;;15.00;62.86;100449.84;4478786;32;34717;-75
2022/10/16 02:29:14;;;;;;;12.50;6.62;;;;;;;15.09;62.26;100442.38;4493433;31;33806;-75
2022/10/16 02:31:47;;;;;;;12.25;5.87;;;;;;;15.23;61.38;100449.81;4480196;31;32138;-75
2022/10/16 02:34:15;;;;;;;8.52;5.65;;;;;;;15.51;60.72;100442.12;4487252;31;34066;-77
2022/10/16 02:36:44;;;;;;;11.32;6.32;;;;;;;15.29;61.63;100444.81;4500317;31;34632;-74
2022/10/16 02:39:12;;;;;;;11.02;6.35;;;;;;;15.28;61.84;100450.87;4479096;31;33671;-75
2022/10/16 02:41:39;;;;;;;10.50;6.25;;;;;;;15.20;62.12;100460.13;4498541;31;33890;-75
2022/10/16 02:44:07;;;;;;;13.13;6.28;;;;;;;15.21;62.25;100467.16;4485547;32;33468;-77
2022/10/16 02:46:34;;;;;;;10.38;6.37;;;;;;;15.11;62.74;100465.91;4493877;31;34124;-74
2022/10/16 02:49:02;;;;;;;13.10;6.50;;;;;;;15.08;62.86;100456.22;4492605;31;33779;-75
2022/10/16 02:51:29;;;;;;;11.00;5.82;;;;;;;15.19;62.61;100466.19;4497115;31;32422;-74
2022/10/16 02:53:57;;;;;;;12.10;6.90;;;;;;;14.98;62.96;100454.13;4489554;31;33414;-75
2022/10/16 02:56:24;;;;;;;11.32;7.40;;;;;;;14.98;63.23;100464.56;4496138;31;34162;-74
2022/10/16 02:58:51;;;;;;;10.07;6.37;;;;;;;15.00;63.05;100468.09;4495375;31;33855;-77
2022/10/16 03:01:19;;;;;;;12.73;6.80;;;;;;;15.04;62.82;100466.50;4479159;31;34433;-75
2022/10/16 03:03:47;;;;;;;10.70;6.37;;;;;;;14.94;62.86;100466.16;4490779;31;33470;-77
2022/10/16 03:06:15;;;;;;;9.90;6.28;;;;;;;14.84;63.64;100465.78;4480890;31;33735;-76
2022/10/16 03:08:42;;;;;;;11.23;6.25;;;;;;;14.62;64.50;100470.16;4486616;31;34541;-75
2022/10/16 03:11:10;;;;;;;12.88;6.37;;;;;;;14.83;63.75;100463.97;4479328;31;33532;-76
2022/10/16 03:13:37;;;;;;;11.68;6.43;;;;;;;14.73;64.36;100478.38;4492995;31;34004;-75
2022/10/16 03:16:04;;;;;;;13.50;6.55;;;;;;;14.50;64.85;100473.12;4499579;31;33685;-75
2022/10/16 03:18:32;;;;;;;10.45;6.80;;;;;;;14.72;63.87;100476.63;4495617;31;34018;-74
2022/10/16 03:20:59;;;;;;;12.43;7.03;;;;;;;14.82;63.47;100475.25;4486799;31;33600;-75
2022/10/16 03:23:27;;;;;;;12.20;7.70;;;;;;;14.65;63.86;100485.91;4488002;31;33447;-76
2022/10/16 03:25:54;;;;;;;17.58;7.97;;;;;;;13.66;67.33;100490.50;4498666;31;33847;-75
2022/10/16 03:28:22;;;;;;;12.00;7.43;;;;;;;14.12;66.24;100488.09;4495887;31;33709;-76
2022/10/16 03:30:49;;;;;;;11.98;7.10;;;;;;;14.07;66.32;100483.53;4484833;31;34336;-76
2022/10/16 03:33:17;;;;;;;10.70;6.87;;;;;;;13.68;67.76;100489.72;4497978;31;33531;-75
2022/10/16 03:35:52;;;;;;;12.05;7.05;;;;;;;13.95;67.20;100489.13;4485263;31;34515;-76
2022/10/16 03:38:20;;;;;;;16.87;7.47;;;;;;;13.39;68.97;100506.66;4461874;32;33845;-74
2022/10/16 03:40:48;;;;;;;14.38;7.32;;;;;;;12.90;71.22;100509.56;4479442;31;33717;-74
2022/10/16 03:43:15;;;;;;;11.68;7.30;;;;;;;12.30;74.21;100504.13;4497431;31;33259;-75
2022/10/16 03:45:43;;;;;;;13.88;7.72;;;;;;;12.90;71.65;100509.56;4488945;31;33853;-75
2022/10/16 03:48:10;;;;;;;17.25;8.70;;;;;;;12.05;75.48;100502.91;4497560;31;33681;-75
2022/10/16 03:50:38;;;;;;;12.30;8.13;;;;;;;12.66;72.98;100504.13;4488143;31;34548;-77
2022/10/16 03:53:05;;;;;;;13.23;7.82;;;;;;;12.50;73.52;100510.31;4496606;31;32956;-75
2022/10/16 03:55:33;;;;;;;13.73;8.07;;;;;;;11.39;77.96;100515.06;4487995;31;33856;-74
2022/10/16 03:58:00;;;;;;;12.23;8.45;;;;;;;11.17;79.01;100520.81;4474875;31;33468;-76
2022/10/16 04:00:28;;;;;;;14.68;8.02;;;;;;;11.25;79.25;100518.63;4478564;31;34326;-74
2022/10/16 04:02:55;;;;;;;13.57;9.05;;;;;;;11.13;79.91;100517.16;4482608;31;33300;-75
2022/10/16 04:05:23;;;;;;;16.60;8.90;;;;;;;10.98;80.29;100513.75;4487102;31;34773;-75
2022/10/16 04:07:50;;;;;;;13.15;8.48;;;;;;;10.88;80.90;100521.84;4499264;31;33945;-75
2022/10/16 04:10:18;;;;;;;14.40;8.90;;;;;;;10.68;82.01;100534.56;4490513;31;33707;-77
2022/10/16 04:12:46;;;;;;;12.30;8.70;;;;;;;11.59;77.99;100531.69;4472679;31;34242;-76
2022/10/16 04:15:13;;;;;;;15.70;9.13;;;;;;;11.57;77.41;100539.38;4475473;31;34010;-74
2022/10/16 04:17:41;;;;;;;14.65;8.75;;;;;;;11.09;79.41;100533.38;4487120;31;34813;-74
2022/10/16 04:20:09;;;;;;;14.30;9.23;;;;;;;11.28;78.87;100535.25;4469714;32;32080;-76
2022/10/16 04:22:36;;;;;;;15.30;8.18;;;;;;;11.69;77.13;100530.47;4484926;31;34202;-76
2022/10/16 04:25:04;;;;;;;15.65;9.15;;;;;;;12.12;75.20;100530.09;4491171;31;34137;-74
2022/10/16 04:27:31;;;;;;;15.40;8.23;;;;;;;12.22;74.55;100526.25;4481972;31;34449;-74
2022/10/16 04:29:59;;;;;;;12.82;7.70;;;;;;;12.43;74.28;100523.81;4484879;31;33690;-76
2022/10/16 04:32:27;;;;;;;14.15;8.50;;;;;;;12.49;73.52;100529.31;4478254;32;33254;-76
2022/10/16 04:34:54;;;;;;;12.60;7.62;;;;;;;12.53;73.22;100529.50;4478377;31;33774;-76
2022/10/16 04:37:25;;;;;;;15.52;8.50;;;;;;;12.58;72.90;100532.34;4478076;31;33714;-76
2022/10/16 04:39:54;;;;;;;13.77;8.95;;;;;;;12.72;72.32;100526.09;4496033;31;33524;-74
2022/10/16 04:42:21;;;;;;;13.85;9.02;;;;;;;12.70;72.24;100527.72;4480569;32;33285;-76
2022/10/16 04:44:48;;;;;;;18.80;11.35;;;;;;;12.69;72.10;100525.97;4475559;31;33572;-74
2022/10/16 04:47:16;;;;;;;12.60;7.95;;;;;;;12.69;72.09;100527.66;4481711;31;34780;-75
2022/10/16 04:49:43;;;;;;;14.10;8.00;;;;;;;12.76;70.95;100528.00;4497205;31;33806;-76
2022/10/16 04:52:11;;;;;;;14.45;9.20;;;;;;;12.08;73.49;100548.94;4481086;31;33154;-74
2022/10/16 04:54:38;;;;;;;18.40;11.52;;;;;;;11.49;76.93;100551.06;4490297;31;34483;-75
2022/10/16 04:57:06;;;;;;;18.30;9.48;;;;;;;11.52;77.01;100548.63;4478522;31;33642;-76
2022/10/16 04:59:33;;;;;;;15.82;10.23;;;;;;;11.70;77.00;100545.22;4479367;31;34033;-76
2022/10/16 05:02:01;;;;;;;16.23;9.35;;;;;;;12.11;74.55;100543.88;4479018;31;33335;-76
2022/10/16 05:04:28;;;;;;;15.60;9.43;;;;;;;12.30;73.18;100540.50;4492077;31;33736;-75
2022/10/16 05:06:56;;;;;;;13.55;8.80;;;;;;;12.63;71.68;100541.25;4487954;31;33922;-76
2022/10/16 05:09:23;;;;;;;15.70;9.35;;;;;;;12.66;71.24;100541.41;4475090;32;34437;-74
2022/10/16 05:11:51;;;;;;;15.00;9.32;;;;;;;12.56;71.16;100539.19;4480290;31;33511;-76
2022/10/16 05:14:18;;;;;;;13.43;8.73;;;;;;;12.49;71.12;100542.28;4478735;31;33916;-76
2022/10/16 05:16:47;;;;;;;17.55;8.95;;;;;;;12.35;71.73;100542.50;4470375;31;33828;-75
2022/10/16 05:19:15;;;;;;;17.25;9.98;;;;;;;12.38;71.98;100550.47;4475127;31;32527;-75
2022/10/16 05:21:53;;;;;;;15.68;8.80;;;;;;;12.93;70.11;100546.13;4476770;31;34286;-74
2022/10/16 05:24:21;;;;;;;14.23;8.98;;;;;;;12.73;70.07;100548.69;4472137;31;33931;-74
2022/10/16 05:26:48;;;;;;;16.17;8.98;;;;;;;12.43;70.97;100560.19;4481156;31;34765;-75
2022/10/16 05:29:16;;;;;;;14.95;8.52;;;;;;;12.82;69.27;100556.03;4478801;31;33581;-75
2022/10/16 05:31:43;;;;;;;11.15;7.30;;;;;;;13.04;67.68;100555.34;4483207;31;33260;-76
2022/10/16 05:34:11;;;;;;;15.18;7.30;;;;;;;13.02;67.93;100550.88;4473574;31;33905;-76
2022/10/16 05:36:38;;;;;;;13.50;7.72;;;;;;;12.93;68.20;100559.13;4470928;32;34605;-74
2022/10/16 05:39:06;;;;;;;13.23;9.18;;;;;;;13.16;67.06;100563.69;4474337;31;34267;-76
2022/10/16 05:41:33;;;;;;;18.05;10.30;;;;;;;12.71;68.68;100565.91;4481703;31;33519;-75
2022/10/16 05:44:04;;;;;;;18.70;11.68;;;;;;;12.65;69.29;100564.72;4484038;31;33887;-75
2022/10/16 05:46:32;;;;;;;17.02;10.45;;;;;;;12.66;69.53;100562.19;4480149;31;33944;-76
2022/10/16 05:48:59;;;;;;;16.92;10.52;;;;;;;12.60;70.14;100572.28;4482416;31;33839;-74
2022/10/16 05:51:27;;;;;;;18.37;9.80;;;;;;;12.79;69.68;100574.97;4485761;31;33571;-76
2022/10/16 05:53:54;;;;;;;16.62;9.60;;;;;;;12.70;70.27;100574.53;4492276;31;32897;-74
2022/10/16 05:56:22;;;;;;;20.65;9.85;;;;;;;12.65;70.75;100580.31;4480929;31;34536;-76
2022/10/16 05:58:49;;;;;;;17.73;9.65;;;;;;;12.73;70.39;100579.87;4486672;31;32406;-77
2022/10/16 06:01:18;;;;;;;16.73;9.73;;;;;;;12.75;70.57;100577.34;4477996;31;33565;-75
2022/10/16 06:03:46;;;;;;;16.80;10.07;;;;;;;12.67;71.03;100574.38;4479367;31;33810;-75
2022/10/16 06:06:19;;;;;;;21.05;10.85;;;;;;;12.69;70.99;100580.56;4490865;31;33817;-76
2022/10/16 06:08:48;;;;;;;13.93;8.43;;;;;;;12.84;70.45;100592.50;4475238;32;33858;-74
2022/10/16 06:11:18;;;;;;;12.60;8.25;;;;;;;12.70;71.29;100600.50;4480954;31;33305;-77
2022/10/16 06:13:49;;;;;;;15.05;8.93;;;;;;;13.14;69.87;100595.69;4489502;31;35987;-76
2022/10/16 06:16:17;;;;;;;15.63;8.48;;;;;;;12.95;70.61;100599.09;4500440;31;33774;-75
2022/10/16 06:18:45;;;;;;;16.45;8.02;;;;;;;12.90;70.80;100605.78;4494371;31;34430;-74
2022/10/16 06:21:24;;;;;;;12.37;7.70;;;;;;;12.70;72.62;100604.84;4498179;31;33366;-75
2022/10/16 06:23:53;;;;;;;18.95;8.50;;;;;;;13.25;69.87;100604.88;4488810;31;34067;-76
2022/10/16 06:26:22;;;;;;;16.90;8.45;;;;;;;13.11;71.58;100613.72;4487243;31;33747;-76
2022/10/16 06:28:50;;;;;;;13.62;8.07;;;;;;;13.40;72.24;100622.94;4494052;31;33749;-76
2022/10/16 06:31:18;;;;;;;13.93;7.40;;;;;;;13.67;68.85;100623.31;4478877;31;33651;-76
2022/10/16 06:33:46;;;;;;;14.20;8.10;;;;;;;13.52;70.14;100633.00;4479663;31;33868;-76
2022/10/16 06:36:15;;;;;;;12.27;7.30;;;;;;;13.46;69.27;100635.34;4493040;31;33715;-76
2022/10/16 06:38:43;;;;;;;14.43;7.93;;;;;;;13.54;68.76;100632.28;4487084;31;33741;-76
2022/10/16 06:41:16;;;;;;;14.18;7.93;;;;;;;13.44;69.04;100630.06;4491663;31;34001;-77
2022/10/16 06:43:45;;;;;;;14.82;8.75;;;;;;;13.70;68.33;100627.78;4474124;31;33644;-76
2022/10/16 06:46:15;;;;;;;13.82;8.00;;;;;;;13.75;68.09;100636.66;4487257;31;34619;-77
2022/10/16 06:48:42;;;;;;;20.08;8.38;;;;;;;13.88;67.64;100649.44;4469864;32;32347;-78
2022/10/16 06:51:15;;;;;;;12.52;8.10;;;;;;;14.18;66.71;100654.22;4484675;31;33229;-76
2022/10/16 06:53:45;;;;;;;14.45;7.50;;;;;;;14.46;65.81;100660.63;4466571;31;34212;-75
2022/10/16 06:56:31;;;;;;;16.42;8.15;;;;;;;14.36;65.97;100660.22;4483393;31;33350;-77
2022/10/16 06:58:59;;;;;;;13.77;8.10;;;;;;;14.45;65.73;100664.06;4474518;32;32083;-77
2022/10/16 07:01:27;;;;;;;15.05;7.85;;;;;;;14.52;65.05;100661.75;4473577;31;33963;-75
2022/10/16 07:03:55;;;;;;;14.23;7.22;;;;;;;14.57;64.86;100659.41;4476140;31;33682;-76
2022/10/16 07:06:24;;;;;;;11.80;7.15;;;;;;;14.48;64.99;100669.41;4489086;31;33769;-78
2022/10/16 07:08:52;;;;;;;11.98;7.20;;;;;;;14.66;64.53;100662.41;4463518;32;34481;-75
2022/10/16 07:11:21;;;;;;;14.68;8.20;;;;;;;14.88;63.94;100668.50;4480111;31;33447;-75
2022/10/16 07:13:49;;;;;;;12.30;7.37;;;;;;;14.97;63.44;100679.34;4487822;31;34367;-77
2022/10/16 07:16:24;;;;;;;13.88;7.78;;;;;;;15.09;63.23;100679.81;4476783;32;33610;-77
2022/10/16 07:18:59;;;;;;;11.52;7.45;;;;;;;15.24;62.40;100681.25;4477396;32;33922;-75
2022/10/16 07:21:30;;;;;;;13.68;7.05;;;;;;;15.51;61.26;100674.53;4492659;31;33171;-78
2022/10/16 07:23:59;;;;;;;16.20;7.62;;;;;;;15.54;61.09;100682.47;4477122;31;33811;-76
2022/10/16 07:26:30;;;;;;;12.55;7.68;;;;;;;15.50;61.32;100687.50;4485479;31;33437;-76
2022/10/16 07:28:58;;;;;;;13.15;7.50;;;;;;;15.51;61.11;100682.34;4487593;31;33974;-78
2022/10/16 07:31:26;;;;;;;13.05;7.10;;;;;;;15.62;60.51;100674.03;4471518;31;32693;-76
2022/10/16 07:33:53;;;;;;;12.95;7.07;;;;;;;15.48;61.04;100682.22;4489997;31;33946;-79
2022/10/16 07:36:21;;;;;;;15.63;7.40;;;;;;;15.08;61.29;100680.63;4486526;31;34810;-76
2022/10/16 07:38:48;;;;;;;11.70;7.75;;;;;;;15.47;60.37;100671.72;4489021;31;32198;-75
2022/10/16 07:41:20;;;;;;;11.48;6.55;;;;;;;15.38;61.07;100680.09;4497533;31;34365;-75
2022/10/16 07:43:49;;;;;;;14.85;8.20;;;;;;;15.88;59.93;100683.78;4484289;31;34526;-76
2022/10/16 07:46:18;;;;;;;11.82;6.90;;;;;;;15.69;60.42;100687.38;4484725;31;34650;-76
2022/10/16 07:48:47;;;;;;;12.77;7.57;;;;;;;15.78;59.97;100685.97;4492586;31;33937;-78
2022/10/16 07:51:19;;;;;;;12.25;7.05;;;;;;;15.82;59.78;100694.00;4497776;31;33504;-78
2022/10/16 07:53:47;;;;;;;11.38;7.72;;;;;;;15.95;59.75;100697.06;4474918;31;33921;-75
2022/10/16 07:56:16;;;;;;;14.45;7.43;;;;;;;15.50;59.77;100696.22;4496665;31;33935;-77
2022/10/16 07:58:43;;;;;;;10.75;6.90;;;;;;;15.82;59.64;100709.69;4477299;32;33623;-77
2022/10/16 08:01:13;;;;;;;11.18;6.45;;;;;;;15.78;59.93;100713.03;4491734;31;33397;-75
2022/10/16 08:03:42;;;;;;;11.23;7.18;;;;;;;15.85;59.54;100709.78;4488847;31;33056;-75
2022/10/16 08:06:10;;;;;;;15.32;7.37;;;;;;;16.37;58.04;100717.78;4497515;31;33886;-75
2022/10/16 08:08:37;;;;;;;12.07;6.70;;;;;;;16.34;57.45;100717.66;4477482;32;33388;-77
2022/10/16 08:11:05;;;;;;;12.18;7.25;;;;;;;16.76;56.75;100725.25;4491280;31;33278;-78
2022/10/16 08:13:32;;;;;;;12.68;6.57;;;;;;;16.60;56.92;100729.94;4488750;31;34483;-78
2022/10/16 08:16:00;;;;;;;12.57;7.15;;;;;;;16.57;57.18;100727.22;4498777;31;34563;-76
2022/10/16 08:18:27;;;;;;;13.95;6.93;;;;;;;16.72;56.54;100726.88;4492559;31;33592;-78
2022/10/16 08:20:57;;;;;;;9.95;6.55;;;;;;;16.54;57.02;100724.50;4492473;31;33286;-77
2022/10/16 08:23:25;;;;;;;12.35;7.35;;;;;;;16.78;57.05;100732.31;4498833;31;33933;-74
2022/10/16 08:25:54;;;;;;;12.30;7.20;;;;;;;16.63;57.33;100731.78;4488637;31;34580;-77
2022/10/16 08:28:22;;;;;;;12.18;6.72;;;;;;;16.67;56.64;100737.19;4496215;31;34013;-76
2022/10/16 08:30:50;;;;;;;12.68;6.95;;;;;;;16.60;57.38;100737.78;4489903;31;34172;-76
2022/10/16 08:33:17;;;;;;;10.68;7.87;;;;;;;16.87;56.92;100739.63;4473001;32;34399;-78
2022/10/16 08:35:53;;;;;;;14.20;7.35;;;;;;;16.76;57.22;100739.22;4497832;31;33568;-77
2022/10/16 08:38:21;;;;;;;12.55;7.87;;;;;;;17.04;56.72;100738.47;4491754;31;34225;-76
2022/10/16 08:40:48;;;;;;;11.00;6.85;;;;;;;17.36;55.46;100738.63;4493231;31;33572;-75
2022/10/16 08:43:23;;;;;;;13.45;7.65;;;;;;;16.94;57.28;100748.56;4498206;31;34421;-79
2022/10/16 08:46:09;;;;;;;11.75;7.60;;;;;;;17.22;56.58;100747.78;4474297;31;34629;-76
2022/10/16 08:48:47;;;;;;;11.52;7.37;;;;;;;17.54;55.42;100740.97;4486161;31;34257;-75
2022/10/16 08:51:32;;;;;;;13.52;7.78;;;;;;;17.33;56.37;100741.16;4493170;31;33591;-76
2022/10/16 08:54:02;;;;;;;11.95;7.85;;;;;;;17.20;56.68;100746.84;4468974;32;33764;-78
2022/10/16 08:56:30;;;;;;;12.68;7.28;;;;;;;17.20;56.66;100759.94;4482011;31;33274;-78
2022/10/16 08:58:58;;;;;;;13.18;8.25;;;;;;;17.41;55.70;100751.87;4467622;32;32181;-76
2022/10/16 09:01:41;;;;;;;11.63;7.35;;;;;;;17.61;54.81;100752.50;4494479;31;33186;-75
2022/10/16 09:04:27;;;;;;;9.68;6.68;;;;;;;17.78;54.12;100758.28;4489736;31;34649;-78
2022/10/16 09:06:58;;;;;;;11.45;7.12;;;;;;;18.17;53.44;100750.75;4492042;31;34934;-78
2022/10/16 09:09:59;;;;;;;13.10;7.30;;;;;;;18.54;52.67;100751.78;4471650;32;34168;-75
2022/10/16 09:12:35;;;;;;;11.68;7.10;;;;;;;18.35;53.32;100759.97;4482296;31;34059;-76
2022/10/16 09:15:21;;;;;;;12.43;7.18;;;;;;;18.84;52.57;100758.75;4493002;31;33630;-77
2022/10/16 09:18:21;;;;;;;15.20;7.90;;;;;;;18.85;52.56;100764.06;4474984;31;33681;-78
2022/10/16 09:21:05;;;;;;;11.82;6.93;;;;;;;19.33;51.43;100762.63;4437552;31;34269;-79
2022/10/16 09:23:37;;;;;;;14.30;7.22;;;;;;;19.13;50.61;100761.25;4472883;32;33033;-76
2022/10/16 09:26:05;;;;;;;10.10;6.47;;;;;;;19.66;50.13;100756.38;4490822;31;33999;-78
2022/10/16 09:28:33;;;;;;;12.07;6.82;;;;;;;19.73;50.08;100752.19;4487769;31;33972;-78
2022/10/16 09:31:00;;;;;;;10.60;6.90;;;;;;;19.69;50.46;100751.22;4484804;31;34429;-78
2022/10/16 09:33:33;;;;;;;12.77;7.05;;;;;;;20.27;48.40;100745.47;4500165;31;33625;-78
2022/10/16 09:36:02;;;;;;;10.23;7.22;;;;;;;20.13;49.17;100751.34;4478144;31;34727;-74
2022/10/16 09:38:32;;;;;;;11.02;6.87;;;;;;;20.32;48.21;100749.06;4488278;31;33920;-77
2022/10/16 09:41:01;;;;;;;11.02;7.32;;;;;;;20.57;48.21;100756.59;4490703;31;33733;-77
2022/10/16 09:43:40;;;;;;;12.10;7.30;;;;;;;20.70;47.39;100756.88;4475449;31;34234;-78
2022/10/16 09:46:09;;;;;;;11.35;6.93;;;;;;;20.78;46.95;100760.50;4493536;31;33815;-75
2022/10/16 09:48:43;;;;;;;12.50;7.10;;;;;;;21.06;46.89;100761.03;4484513;31;33721;-77
2022/10/16 09:51:28;;;;;;;13.62;6.82;;;;;;;21.08;47.02;100767.22;4467513;32;33698;-78
2022/10/16 09:54:00;;;;;;;9.93;6.45;;;;;;;21.44;45.14;100763.44;4476919;31;33396;-77
2022/10/16 09:56:33;;;;;;;10.93;6.80;;;;;;;21.27;46.48;100774.56;4496222;31;34661;-77
2022/10/16 09:59:08;;;;;;;10.05;7.15;;;;;;;21.35;45.83;100774.69;4496822;31;33620;-78
2022/10/16 10:02:05;;;;;;;;;;;;;;;21.76;45.21;100763.94;4475883;31;34012;-76
2022/10/16 10:04:42;;;;;;;13.98;6.68;;;;;;;22.36;43.72;100770.03;4482692;31;33353;-78
2022/10/16 10:07:18;;;;;;;11.80;6.57;;;;;;;22.16;43.82;100768.00;4474862;32;34218;-76
2022/10/16 10:09:46;;;;;;;13.27;7.07;;;;;;;22.23;44.19;100768.06;4497892;31;34486;-75
2022/10/16 10:12:19;;;;;;;10.68;6.80;;;;;;;22.11;44.76;100751.19;4477433;31;32206;-76
2022/10/16 10:14:55;;;;;;;10.57;6.32;;;;;;;21.64;45.46;100756.72;4483256;31;33322;-76
2022/10/16 10:17:24;;;;;;;11.23;7.05;;;;;;;22.22;44.08;100745.19;4494746;31;33837;-76
2022/10/16 10:20:27;;;;;;;14.10;8.05;;;;;;;22.17;43.47;100748.66;4485436;31;34575;-76
2022/10/16 10:22:55;;;;;;;10.70;6.10;;;;;;;22.09;43.76;100750.31;4491447;31;34369;-78
2022/10/16 10:25:35;;;;;;;10.73;6.50;;;;;;;22.38;43.50;100752.44;4470521;32;33023;-77
2022/10/16 10:28:44;;;;;;;18.52;6.60;;;;;;;22.80;43.11;100747.62;4470542;31;33423;-75
2022/10/16 10:31:41;;;;;;;10.38;6.53;;;;;;;23.17;41.82;100738.31;4469967;31;34583;-75
2022/10/16 10:34:46;;;;;;;11.63;6.50;;;;;;;23.06;42.21;100732.91;4479553;31;33743;-76
2022/10/16 10:37:41;;;;;;;10.57;6.15;;;;;;;23.15;42.46;100721.53;4475660;31;33940;-74
2022/10/16 10:40:43;;;;;;;10.43;5.90;;;;;;;23.31;41.51;100739.31;4472338;31;33573;-75
2022/10/16 10:43:38;;;;;;;13.85;5.70;;;;;;;23.65;41.60;100734.22;4475800;31;33586;-75
2022/10/16 10:46:09;;;;;;;9.07;6.62;;;;;;;23.65;41.50;100733.34;4473866;31;33544;-74
2022/10/16 10:48:52;;;;;;;10.63;5.53;;;;;;;23.38;41.22;100739.34;4477971;31;33076;-73
2022/10/16 10:51:55;;;;;;;8.25;5.00;;;;;;;23.98;41.04;100737.97;4483352;31;33807;-73
2022/10/16 10:54:31;;;;;;;11.38;5.45;;;;;;;23.79;41.27;100736.13;4470815;31;33747;-75
2022/10/16 10:57:03;;;;;;;9.48;5.32;;;;;;;24.20;39.41;100732.78;4481499;31;32388;-77
2022/10/16 10:59:52;;;;;;;9.32;5.55;;;;;;;23.98;40.16;100732.69;4482792;31;34198;-75
2022/10/16 11:02:48;;;;;;;8.32;5.68;;;;;;;24.26;39.96;100735.44;4475641;32;34409;-75
2022/10/16 11:05:39;;;;;;;8.70;5.37;;;;;;;24.02;39.58;100734.47;4476413;32;34618;-76
2022/10/16 11:08:21;;;;;;;10.88;5.62;;;;;;;23.77;39.25;100735.19;4471168;32;32324;-75
2022/10/16 11:10:55;;;;;;;21.92;13.23;;;;;;;23.34;39.92;100731.38;4476208;31;33185;-76
2022/10/16 11:13:39;;;;;;;14.70;9.68;;;;;;;23.69;40.74;100730.72;4480329;31;33884;-76
2022/10/16 11:16:43;;;;;;;28.92;20.27;;;;;;;24.09;39.95;100730.97;4471354;32;34519;-75
2022/10/16 11:19:38;;;;;;;16.12;8.57;;;;;;;24.20;40.32;100727.47;4460154;31;33657;-77
2022/10/16 11:22:15;;;;;;;;;;;;;;;24.29;39.43;100719.56;4477418;31;33386;-75
2022/10/16 11:24:43;;;;;;;17.52;10.25;;;;;;;24.47;39.29;100722.28;4486129;31;34238;-77
2022/10/16 11:27:15;;;;;;;9.88;6.10;;;;;;;24.56;38.93;100720.56;4481675;31;33731;-74
2022/10/16 11:29:57;;;;;;;8.43;5.20;;;;;;;24.98;37.88;100713.56;4484786;31;33854;-73
2022/10/16 11:32:53;;;;;;;11.73;6.70;;;;;;;24.96;37.81;100712.69;4477594;32;33128;-75
2022/10/16 11:35:30;;;;;;;17.52;11.93;;;;;;;24.73;38.35;100714.41;4466904;31;34607;-75
2022/10/16 11:37:58;;;;;;;13.85;6.45;;;;;;;24.85;37.20;100713.53;4478948;31;33688;-75
2022/10/16 11:40:34;;;;;;;8.25;4.80;;;;;;;24.43;38.08;100712.53;4478857;32;33838;-76